sensor_id;sensor_type;location;lat;lon;timestamp;P1;durP1;ratioP1;P2;durP2;ratioP2
8001;SDS011;4046;48.774;8.732;2023-02-12T00:01:37;2.63;;;2.43;;
8001;SDS011;4046;48.774;8.732;2023-02-12T00:04:04;2.90;;;2.70;;
8001;SDS011;4046;48.774;8.732;2023-02-12T00:06:30;3.20;;;3.00;;
8001;SDS011;4046;48.774;8.732;2023-02-12T00:08:57;2.50;;;2.30;;
8001;SDS011;4046;48.774;8.732;2023-02-12T00:11:25;2.80;;;2.60;;
8001;SDS011;4046;48.774;8.732;2023-02-12T00:13:53;3.03;;;2.83;;
8001;SDS011;4046;48.774;8.732;2023-02-12T00:16:22;2.47;;;2.37;;
8001;SDS011;4046;48.774;8.732;2023-02-12T00:18:52;3.13;;;2.93;;
8001;SDS011;4046;48.774;8.732;2023-02-12T00:21:19;2.93;;;2.73;;
8001;SDS011;4046;48.774;8.732;2023-02-12T00:23:46;2.80;;;2.60;;
8001;SDS011;4046;48.774;8.732;2023-02-12T00:26:14;2.77;;;2.67;;
8001;SDS011;4046;48.774;8.732;2023-02-12T00:28:42;2.63;;;2.50;;
8001;SDS011;4046;48.774;8.732;2023-02-12T00:31:10;3.20;;;3.00;;
8001;SDS011;4046;48.774;8.732;2023-02-12T00:33:41;2.73;;;2.53;;
8001;SDS011;4046;48.774;8.732;2023-02-12T00:36:09;2.90;;;2.70;;
8001;SDS011;4046;48.774;8.732;2023-02-12T00:38:40;2.57;;;2.40;;
8001;SDS011;4046;48.774;8.732;2023-02-12T00:41:07;2.90;;;2.70;;
8001;SDS011;4046;48.774;8.732;2023-02-12T00:43:33;2.93;;;2.73;;
8001;SDS011;4046;48.774;8.732;2023-02-12T00:45:59;2.90;;;2.70;;
8001;SDS011;4046;48.774;8.732;2023-02-12T00:48:26;2.90;;;2.70;;
8001;SDS011;4046;48.774;8.732;2023-02-12T00:50:52;3.03;;;2.83;;
8001;SDS011;4046;48.774;8.732;2023-02-12T00:53:18;3.10;;;2.90;;
8001;SDS011;4046;48.774;8.732;2023-02-12T00:55:44;3.00;;;2.80;;
8001;SDS011;4046;48.774;8.732;2023-02-12T00:58:10;3.10;;;2.90;;
8001;SDS011;4046;48.774;8.732;2023-02-12T01:00:37;3.07;;;2.87;;
8001;SDS011;4046;48.774;8.732;2023-02-12T01:03:03;3.10;;;2.90;;
8001;SDS011;4046;48.774;8.732;2023-02-12T01:05:30;2.83;;;2.63;;
8001;SDS011;4046;48.774;8.732;2023-02-12T01:07:57;3.10;;;2.90;;
8001;SDS011;4046;48.774;8.732;2023-02-12T01:10:23;3.00;;;2.80;;
8001;SDS011;4046;48.774;8.732;2023-02-12T01:12:49;3.17;;;2.97;;
8001;SDS011;4046;48.774;8.732;2023-02-12T01:15:16;2.77;;;2.57;;
8001;SDS011;4046;48.774;8.732;2023-02-12T01:17:43;2.77;;;2.57;;
8001;SDS011;4046;48.774;8.732;2023-02-12T01:20:11;2.70;;;2.50;;
8001;SDS011;4046;48.774;8.732;2023-02-12T01:22:42;3.27;;;3.07;;
8001;SDS011;4046;48.774;8.732;2023-02-12T01:25:09;2.93;;;2.73;;
8001;SDS011;4046;48.774;8.732;2023-02-12T01:27:35;2.83;;;2.63;;
8001;SDS011;4046;48.774;8.732;2023-02-12T01:30:05;3.30;;;3.10;;
8001;SDS011;4046;48.774;8.732;2023-02-12T01:32:33;2.67;;;2.53;;
8001;SDS011;4046;48.774;8.732;2023-02-12T01:35:00;2.70;;;2.50;;
8001;SDS011;4046;48.774;8.732;2023-02-12T01:37:26;2.77;;;2.67;;
8001;SDS011;4046;48.774;8.732;2023-02-12T01:39:52;2.80;;;2.60;;
8001;SDS011;4046;48.774;8.732;2023-02-12T01:42:19;2.43;;;2.33;;
8001;SDS011;4046;48.774;8.732;2023-02-12T01:47:40;2.60;;;2.50;;
8001;SDS011;4046;48.774;8.732;2023-02-12T01:50:08;3.10;;;2.90;;
8001;SDS011;4046;48.774;8.732;2023-02-12T01:52:40;2.70;;;2.50;;
8001;SDS011;4046;48.774;8.732;2023-02-12T01:55:10;2.97;;;2.77;;
8001;SDS011;4046;48.774;8.732;2023-02-12T01:57:39;2.40;;;2.30;;
8001;SDS011;4046;48.774;8.732;2023-02-12T02:00:09;3.00;;;2.80;;
8001;SDS011;4046;48.774;8.732;2023-02-12T02:02:38;2.93;;;2.73;;
8001;SDS011;4046;48.774;8.732;2023-02-12T02:05:05;2.53;;;2.33;;
8001;SDS011;4046;48.774;8.732;2023-02-12T02:07:32;2.47;;;2.37;;
8001;SDS011;4046;48.774;8.732;2023-02-12T02:09:58;3.13;;;2.93;;
8001;SDS011;4046;48.774;8.732;2023-02-12T02:12:26;3.03;;;2.83;;
8001;SDS011;4046;48.774;8.732;2023-02-12T02:15:11;3.10;;;2.90;;
8001;SDS011;4046;48.774;8.732;2023-02-12T02:31:31;2.50;;;2.40;;
8001;SDS011;4046;48.774;8.732;2023-02-12T02:42:24;2.77;;;2.57;;
8001;SDS011;4046;48.774;8.732;2023-02-12T02:45:05;2.90;;;2.70;;
8001;SDS011;4046;48.774;8.732;2023-02-12T02:47:38;2.97;;;2.77;;
8001;SDS011;4046;48.774;8.732;2023-02-12T02:50:13;2.47;;;2.27;;
8001;SDS011;4046;48.774;8.732;2023-02-12T02:52:50;2.50;;;2.40;;
8001;SDS011;4046;48.774;8.732;2023-02-12T02:55:21;2.70;;;2.50;;
8001;SDS011;4046;48.774;8.732;2023-02-12T02:57:53;3.10;;;2.90;;
8001;SDS011;4046;48.774;8.732;2023-02-12T03:03:31;2.60;;;2.40;;
8001;SDS011;4046;48.774;8.732;2023-02-12T03:09:17;2.80;;;2.60;;
8001;SDS011;4046;48.774;8.732;2023-02-12T03:11:52;2.50;;;2.30;;
8001;SDS011;4046;48.774;8.732;2023-02-12T03:14:25;2.80;;;2.60;;
8001;SDS011;4046;48.774;8.732;2023-02-12T03:17:15;2.87;;;2.67;;
8001;SDS011;4046;48.774;8.732;2023-02-12T03:19:45;2.77;;;2.60;;
8001;SDS011;4046;48.774;8.732;2023-02-12T03:22:19;2.50;;;2.40;;
8001;SDS011;4046;48.774;8.732;2023-02-12T03:24:52;2.73;;;2.53;;
8001;SDS011;4046;48.774;8.732;2023-02-12T03:27:28;2.90;;;2.70;;
8001;SDS011;4046;48.774;8.732;2023-02-12T03:29:58;3.13;;;2.93;;
8001;SDS011;4046;48.774;8.732;2023-02-12T03:33:09;2.73;;;2.60;;
8001;SDS011;4046;48.774;8.732;2023-02-12T03:35:20;2.73;;;2.53;;
8001;SDS011;4046;48.774;8.732;2023-02-12T03:40:32;3.00;;;2.80;;
8001;SDS011;4046;48.774;8.732;2023-02-12T03:43:05;2.63;;;2.50;;
8001;SDS011;4046;48.774;8.732;2023-02-12T03:45:46;2.17;;;2.07;;
8001;SDS011;4046;48.774;8.732;2023-02-12T03:48:44;2.73;;;2.60;;
8001;SDS011;4046;48.774;8.732;2023-02-12T03:51:35;2.60;;;2.50;;
8001;SDS011;4046;48.774;8.732;2023-02-12T03:54:08;2.90;;;2.70;;
8001;SDS011;4046;48.774;8.732;2023-02-12T03:56:38;2.63;;;2.50;;
8001;SDS011;4046;48.774;8.732;2023-02-12T03:59:12;2.40;;;2.30;;
8001;SDS011;4046;48.774;8.732;2023-02-12T04:01:38;2.20;;;2.10;;
8001;SDS011;4046;48.774;8.732;2023-02-12T04:04:05;2.43;;;2.33;;
8001;SDS011;4046;48.774;8.732;2023-02-12T04:06:32;2.47;;;2.37;;
8001;SDS011;4046;48.774;8.732;2023-02-12T04:09:03;2.57;;;2.47;;
8001;SDS011;4046;48.774;8.732;2023-02-12T04:11:35;2.80;;;2.60;;
8001;SDS011;4046;48.774;8.732;2023-02-12T04:19:53;3.07;;;2.87;;
8001;SDS011;4046;48.774;8.732;2023-02-12T04:25:14;2.40;;;2.30;;
8001;SDS011;4046;48.774;8.732;2023-02-12T04:30:30;2.90;;;2.70;;
8001;SDS011;4046;48.774;8.732;2023-02-12T04:33:10;2.63;;;2.50;;
8001;SDS011;4046;48.774;8.732;2023-02-12T04:35:44;2.53;;;2.40;;
8001;SDS011;4046;48.774;8.732;2023-02-12T04:38:24;2.50;;;2.40;;
8001;SDS011;4046;48.774;8.732;2023-02-12T04:40:56;2.63;;;2.43;;
8001;SDS011;4046;48.774;8.732;2023-02-12T04:43:27;2.60;;;2.40;;
8001;SDS011;4046;48.774;8.732;2023-02-12T04:45:54;3.00;;;2.80;;
8001;SDS011;4046;48.774;8.732;2023-02-12T04:48:21;2.10;;;2.00;;
8001;SDS011;4046;48.774;8.732;2023-02-12T04:50:47;2.30;;;2.20;;
8001;SDS011;4046;48.774;8.732;2023-02-12T04:53:14;2.37;;;2.27;;
8001;SDS011;4046;48.774;8.732;2023-02-12T04:55:40;2.80;;;2.60;;
8001;SDS011;4046;48.774;8.732;2023-02-12T04:58:06;2.67;;;2.50;;
8001;SDS011;4046;48.774;8.732;2023-02-12T05:00:33;2.80;;;2.60;;
8001;SDS011;4046;48.774;8.732;2023-02-12T05:02:59;2.90;;;2.70;;
8001;SDS011;4046;48.774;8.732;2023-02-12T05:05:25;2.70;;;2.50;;
8001;SDS011;4046;48.774;8.732;2023-02-12T05:07:52;2.93;;;2.73;;
8001;SDS011;4046;48.774;8.732;2023-02-12T05:10:18;2.23;;;2.13;;
8001;SDS011;4046;48.774;8.732;2023-02-12T05:12:44;2.47;;;2.30;;
8001;SDS011;4046;48.774;8.732;2023-02-12T05:15:10;2.80;;;2.60;;
8001;SDS011;4046;48.774;8.732;2023-02-12T05:17:37;2.10;;;2.00;;
8001;SDS011;4046;48.774;8.732;2023-02-12T05:20:03;2.10;;;2.00;;
8001;SDS011;4046;48.774;8.732;2023-02-12T05:22:30;2.40;;;2.30;;
8001;SDS011;4046;48.774;8.732;2023-02-12T05:24:56;2.27;;;2.17;;
8001;SDS011;4046;48.774;8.732;2023-02-12T05:27:22;2.33;;;2.23;;
8001;SDS011;4046;48.774;8.732;2023-02-12T05:29:48;2.20;;;2.10;;
8001;SDS011;4046;48.774;8.732;2023-02-12T05:32:15;2.20;;;2.10;;
8001;SDS011;4046;48.774;8.732;2023-02-12T05:34:41;2.93;;;2.77;;
8001;SDS011;4046;48.774;8.732;2023-02-12T05:37:07;2.20;;;2.10;;
8001;SDS011;4046;48.774;8.732;2023-02-12T05:39:33;2.40;;;2.30;;
8001;SDS011;4046;48.774;8.732;2023-02-12T05:41:59;2.87;;;2.67;;
8001;SDS011;4046;48.774;8.732;2023-02-12T05:44:26;2.60;;;2.40;;
8001;SDS011;4046;48.774;8.732;2023-02-12T05:46:52;2.47;;;2.37;;
8001;SDS011;4046;48.774;8.732;2023-02-12T05:49:18;2.53;;;2.43;;
8001;SDS011;4046;48.774;8.732;2023-02-12T05:51:44;2.60;;;2.40;;
8001;SDS011;4046;48.774;8.732;2023-02-12T05:54:10;2.33;;;2.23;;
8001;SDS011;4046;48.774;8.732;2023-02-12T05:56:43;2.47;;;2.37;;
8001;SDS011;4046;48.774;8.732;2023-02-12T05:59:15;2.70;;;2.60;;
8001;SDS011;4046;48.774;8.732;2023-02-12T06:01:46;2.33;;;2.23;;
8001;SDS011;4046;48.774;8.732;2023-02-12T06:04:14;2.77;;;2.57;;
8001;SDS011;4046;48.774;8.732;2023-02-12T06:06:42;2.60;;;2.40;;
8001;SDS011;4046;48.774;8.732;2023-02-12T06:09:10;2.43;;;2.33;;
8001;SDS011;4046;48.774;8.732;2023-02-12T06:11:38;2.40;;;2.20;;
8001;SDS011;4046;48.774;8.732;2023-02-12T06:14:05;2.53;;;2.43;;
8001;SDS011;4046;48.774;8.732;2023-02-12T06:16:32;2.53;;;2.37;;
8001;SDS011;4046;48.774;8.732;2023-02-12T06:19:00;2.20;;;2.10;;
8001;SDS011;4046;48.774;8.732;2023-02-12T06:21:29;2.43;;;2.23;;
8001;SDS011;4046;48.774;8.732;2023-02-12T06:23:56;2.20;;;2.10;;
8001;SDS011;4046;48.774;8.732;2023-02-12T06:26:22;2.40;;;2.30;;
8001;SDS011;4046;48.774;8.732;2023-02-12T06:28:50;2.57;;;2.47;;
8001;SDS011;4046;48.774;8.732;2023-02-12T06:31:17;2.23;;;2.10;;
8001;SDS011;4046;48.774;8.732;2023-02-12T06:33:51;2.37;;;2.27;;
8001;SDS011;4046;48.774;8.732;2023-02-12T06:36:19;2.40;;;2.30;;
8001;SDS011;4046;48.774;8.732;2023-02-12T06:38:46;2.80;;;2.60;;
8001;SDS011;4046;48.774;8.732;2023-02-12T06:41:12;2.30;;;2.20;;
8001;SDS011;4046;48.774;8.732;2023-02-12T06:43:41;2.50;;;2.33;;
8001;SDS011;4046;48.774;8.732;2023-02-12T06:46:08;2.80;;;2.60;;
8001;SDS011;4046;48.774;8.732;2023-02-12T06:48:35;2.70;;;2.50;;
8001;SDS011;4046;48.774;8.732;2023-02-12T06:51:05;2.43;;;2.33;;
8001;SDS011;4046;48.774;8.732;2023-02-12T06:53:33;2.47;;;2.37;;
8001;SDS011;4046;48.774;8.732;2023-02-12T06:56:00;2.77;;;2.57;;
8001;SDS011;4046;48.774;8.732;2023-02-12T06:58:27;2.80;;;2.60;;
8001;SDS011;4046;48.774;8.732;2023-02-12T07:00:53;2.80;;;2.63;;
8001;SDS011;4046;48.774;8.732;2023-02-12T07:03:20;2.60;;;2.50;;
8001;SDS011;4046;48.774;8.732;2023-02-12T07:05:46;2.87;;;2.67;;
8001;SDS011;4046;48.774;8.732;2023-02-12T07:08:13;2.50;;;2.30;;
8001;SDS011;4046;48.774;8.732;2023-02-12T07:10:39;2.57;;;2.37;;
8001;SDS011;4046;48.774;8.732;2023-02-12T07:13:06;2.67;;;2.47;;
8001;SDS011;4046;48.774;8.732;2023-02-12T07:15:32;2.30;;;2.10;;
8001;SDS011;4046;48.774;8.732;2023-02-12T07:17:58;2.90;;;2.70;;
8001;SDS011;4046;48.774;8.732;2023-02-12T07:20:24;2.40;;;2.30;;
8001;SDS011;4046;48.774;8.732;2023-02-12T07:22:50;2.70;;;2.60;;
8001;SDS011;4046;48.774;8.732;2023-02-12T07:25:16;2.80;;;2.60;;
8001;SDS011;4046;48.774;8.732;2023-02-12T07:27:43;2.53;;;2.33;;
8001;SDS011;4046;48.774;8.732;2023-02-12T07:30:09;2.90;;;2.70;;
8001;SDS011;4046;48.774;8.732;2023-02-12T07:32:36;2.33;;;2.20;;
8001;SDS011;4046;48.774;8.732;2023-02-12T07:35:02;2.73;;;2.53;;
8001;SDS011;4046;48.774;8.732;2023-02-12T07:37:28;2.60;;;2.50;;
8001;SDS011;4046;48.774;8.732;2023-02-12T07:39:54;2.90;;;2.70;;
8001;SDS011;4046;48.774;8.732;2023-02-12T07:42:20;2.60;;;2.50;;
8001;SDS011;4046;48.774;8.732;2023-02-12T07:44:47;2.67;;;2.47;;
8001;SDS011;4046;48.774;8.732;2023-02-12T07:47:14;2.60;;;2.40;;
8001;SDS011;4046;48.774;8.732;2023-02-12T07:49:41;2.90;;;2.70;;
8001;SDS011;4046;48.774;8.732;2023-02-12T07:52:07;2.40;;;2.30;;
8001;SDS011;4046;48.774;8.732;2023-02-12T07:54:33;2.40;;;2.30;;
8001;SDS011;4046;48.774;8.732;2023-02-12T07:56:59;2.40;;;2.27;;
8001;SDS011;4046;48.774;8.732;2023-02-12T07:59:25;2.30;;;2.20;;
8001;SDS011;4046;48.774;8.732;2023-02-12T08:01:53;2.47;;;2.37;;
8001;SDS011;4046;48.774;8.732;2023-02-12T08:04:21;2.47;;;2.37;;
8001;SDS011;4046;48.774;8.732;2023-02-12T08:06:49;2.63;;;2.43;;
8001;SDS011;4046;48.774;8.732;2023-02-12T08:09:25;2.30;;;2.20;;
8001;SDS011;4046;48.774;8.732;2023-02-12T08:11:55;2.20;;;2.10;;
8001;SDS011;4046;48.774;8.732;2023-02-12T08:14:21;2.50;;;2.40;;
8001;SDS011;4046;48.774;8.732;2023-02-12T08:16:48;2.57;;;2.37;;
8001;SDS011;4046;48.774;8.732;2023-02-12T08:19:15;2.90;;;2.70;;
8001;SDS011;4046;48.774;8.732;2023-02-12T08:21:42;2.20;;;2.10;;
8001;SDS011;4046;48.774;8.732;2023-02-12T08:24:08;2.90;;;2.70;;
8001;SDS011;4046;48.774;8.732;2023-02-12T08:26:35;2.40;;;2.30;;
8001;SDS011;4046;48.774;8.732;2023-02-12T08:29:11;2.80;;;2.60;;
8001;SDS011;4046;48.774;8.732;2023-02-12T08:31:43;2.40;;;2.30;;
8001;SDS011;4046;48.774;8.732;2023-02-12T08:34:20;2.47;;;2.37;;
8001;SDS011;4046;48.774;8.732;2023-02-12T08:36:55;2.43;;;2.33;;
8001;SDS011;4046;48.774;8.732;2023-02-12T08:39:23;2.40;;;2.30;;
8001;SDS011;4046;48.774;8.732;2023-02-12T08:41:50;2.50;;;2.30;;
8001;SDS011;4046;48.774;8.732;2023-02-12T08:44:18;2.50;;;2.37;;
8001;SDS011;4046;48.774;8.732;2023-02-12T08:46:45;2.33;;;2.20;;
8001;SDS011;4046;48.774;8.732;2023-02-12T08:49:15;3.10;;;2.90;;
8001;SDS011;4046;48.774;8.732;2023-02-12T08:51:47;2.40;;;2.30;;
8001;SDS011;4046;48.774;8.732;2023-02-12T08:54:16;2.80;;;2.60;;
8001;SDS011;4046;48.774;8.732;2023-02-12T08:56:48;2.70;;;2.50;;
8001;SDS011;4046;48.774;8.732;2023-02-12T08:59:15;2.97;;;2.77;;
8001;SDS011;4046;48.774;8.732;2023-02-12T09:01:42;3.20;;;3.00;;
8001;SDS011;4046;48.774;8.732;2023-02-12T09:04:20;2.40;;;2.30;;
8001;SDS011;4046;48.774;8.732;2023-02-12T09:06:49;2.53;;;2.43;;
8001;SDS011;4046;48.774;8.732;2023-02-12T09:09:15;3.10;;;2.90;;
8001;SDS011;4046;48.774;8.732;2023-02-12T09:11:42;3.00;;;2.80;;
8001;SDS011;4046;48.774;8.732;2023-02-12T09:14:11;3.27;;;3.07;;
8001;SDS011;4046;48.774;8.732;2023-02-12T09:16:39;2.90;;;2.80;;
8001;SDS011;4046;48.774;8.732;2023-02-12T09:19:06;2.87;;;2.67;;
8001;SDS011;4046;48.774;8.732;2023-02-12T09:21:35;2.70;;;2.50;;
8001;SDS011;4046;48.774;8.732;2023-02-12T09:24:02;2.50;;;2.40;;
8001;SDS011;4046;48.774;8.732;2023-02-12T09:26:28;2.43;;;2.33;;
8001;SDS011;4046;48.774;8.732;2023-02-12T09:28:55;2.90;;;2.70;;
8001;SDS011;4046;48.774;8.732;2023-02-12T09:31:25;13.40;;;3.00;;
8001;SDS011;4046;48.774;8.732;2023-02-12T09:33:53;4.30;;;4.00;;
8001;SDS011;4046;48.774;8.732;2023-02-12T09:36:22;4.70;;;4.30;;
8001;SDS011;4046;48.774;8.732;2023-02-12T09:38:49;19.97;;;5.37;;
8001;SDS011;4046;48.774;8.732;2023-02-12T09:43:52;250.00;;;24.20;;
8001;SDS011;4046;48.774;8.732;2023-02-12T09:46:44;188.03;;;21.73;;
8001;SDS011;4046;48.774;8.732;2023-02-12T09:51:57;188.30;;;20.90;;
8001;SDS011;4046;48.774;8.732;2023-02-12T09:54:32;113.17;;;17.10;;
8001;SDS011;4046;48.774;8.732;2023-02-12T09:57:03;109.20;;;16.60;;
8001;SDS011;4046;48.774;8.732;2023-02-12T09:59:42;109.97;;;17.00;;
8001;SDS011;4046;48.774;8.732;2023-02-12T10:02:15;90.90;;;15.40;;
8001;SDS011;4046;48.774;8.732;2023-02-12T10:04:43;90.43;;;14.57;;
8001;SDS011;4046;48.774;8.732;2023-02-12T10:13:04;73.20;;;12.27;;
8001;SDS011;4046;48.774;8.732;2023-02-12T10:15:53;63.47;;;12.63;;
8001;SDS011;4046;48.774;8.732;2023-02-12T10:21:30;59.33;;;11.80;;
8001;SDS011;4046;48.774;8.732;2023-02-12T10:26:53;42.67;;;11.17;;
8001;SDS011;4046;48.774;8.732;2023-02-12T10:29:28;50.77;;;11.27;;
8001;SDS011;4046;48.774;8.732;2023-02-12T10:34:43;36.30;;;9.90;;
8001;SDS011;4046;48.774;8.732;2023-02-12T10:37:16;41.63;;;8.83;;
8001;SDS011;4046;48.774;8.732;2023-02-12T10:39:53;39.43;;;9.57;;
8001;SDS011;4046;48.774;8.732;2023-02-12T10:45:01;39.03;;;8.77;;
8001;SDS011;4046;48.774;8.732;2023-02-12T10:47:28;33.90;;;8.43;;
8001;SDS011;4046;48.774;8.732;2023-02-12T10:49:58;34.80;;;8.40;;
8001;SDS011;4046;48.774;8.732;2023-02-12T10:52:38;25.63;;;7.17;;
8001;SDS011;4046;48.774;8.732;2023-02-12T10:57:58;25.70;;;7.57;;
8001;SDS011;4046;48.774;8.732;2023-02-12T11:00:35;29.57;;;6.73;;
8001;SDS011;4046;48.774;8.732;2023-02-12T11:03:04;23.27;;;6.60;;
8001;SDS011;4046;48.774;8.732;2023-02-12T11:05:43;21.50;;;8.13;;
8001;SDS011;4046;48.774;8.732;2023-02-12T11:08:27;26.37;;;6.30;;
8001;SDS011;4046;48.774;8.732;2023-02-12T11:11:04;19.47;;;5.40;;
8001;SDS011;4046;48.774;8.732;2023-02-12T11:13:36;18.53;;;6.00;;
8001;SDS011;4046;48.774;8.732;2023-02-12T11:16:05;21.17;;;6.07;;
8001;SDS011;4046;48.774;8.732;2023-02-12T11:18:31;14.97;;;5.80;;
8001;SDS011;4046;48.774;8.732;2023-02-12T11:21:08;17.50;;;6.30;;
8001;SDS011;4046;48.774;8.732;2023-02-12T11:23:37;13.33;;;5.43;;
8001;SDS011;4046;48.774;8.732;2023-02-12T11:26:06;18.17;;;5.97;;
8001;SDS011;4046;48.774;8.732;2023-02-12T11:28:53;10.93;;;5.53;;
8001;SDS011;4046;48.774;8.732;2023-02-12T11:31:24;12.27;;;5.17;;
8001;SDS011;4046;48.774;8.732;2023-02-12T11:36:42;16.20;;;4.90;;
8001;SDS011;4046;48.774;8.732;2023-02-12T11:41:52;9.30;;;4.90;;
8001;SDS011;4046;48.774;8.732;2023-02-12T11:44:31;14.43;;;4.90;;
8001;SDS011;4046;48.774;8.732;2023-02-12T11:47:07;10.80;;;5.13;;
8001;SDS011;4046;48.774;8.732;2023-02-12T11:49:49;13.73;;;4.80;;
8001;SDS011;4046;48.774;8.732;2023-02-12T11:52:21;11.03;;;4.30;;
8001;SDS011;4046;48.774;8.732;2023-02-12T11:54:49;11.20;;;4.70;;
8001;SDS011;4046;48.774;8.732;2023-02-12T11:57:33;9.40;;;4.63;;
8001;SDS011;4046;48.774;8.732;2023-02-12T12:00:36;10.53;;;4.60;;
8001;SDS011;4046;48.774;8.732;2023-02-12T12:03:13;6.13;;;4.20;;
8001;SDS011;4046;48.774;8.732;2023-02-12T12:05:47;12.13;;;4.30;;
8001;SDS011;4046;48.774;8.732;2023-02-12T12:11:14;7.63;;;4.23;;
8001;SDS011;4046;48.774;8.732;2023-02-12T12:13:48;6.10;;;4.30;;
8001;SDS011;4046;48.774;8.732;2023-02-12T12:16:37;5.60;;;3.70;;
8001;SDS011;4046;48.774;8.732;2023-02-12T12:19:27;5.70;;;3.70;;
8001;SDS011;4046;48.774;8.732;2023-02-12T12:25:42;4.67;;;3.43;;
8001;SDS011;4046;48.774;8.732;2023-02-12T12:33:40;3.40;;;3.00;;
8001;SDS011;4046;48.774;8.732;2023-02-12T12:56:26;4.90;;;3.40;;
8001;SDS011;4046;48.774;8.732;2023-02-12T12:59:06;4.40;;;3.83;;
8001;SDS011;4046;48.774;8.732;2023-02-12T13:10:06;4.70;;;3.43;;
8001;SDS011;4046;48.774;8.732;2023-02-12T13:13:00;3.83;;;3.53;;
8001;SDS011;4046;48.774;8.732;2023-02-12T13:18:29;3.43;;;3.13;;
8001;SDS011;4046;48.774;8.732;2023-02-12T13:23:49;3.13;;;2.90;;
8001;SDS011;4046;48.774;8.732;2023-02-12T13:26:32;3.13;;;2.93;;
8001;SDS011;4046;48.774;8.732;2023-02-12T13:29:20;3.00;;;2.70;;
8001;SDS011;4046;48.774;8.732;2023-02-12T13:32:04;3.63;;;3.00;;
8001;SDS011;4046;48.774;8.732;2023-02-12T13:34:41;3.60;;;3.30;;
8001;SDS011;4046;48.774;8.732;2023-02-12T13:40:03;2.97;;;2.77;;
8001;SDS011;4046;48.774;8.732;2023-02-12T13:45:19;3.10;;;2.80;;
8001;SDS011;4046;48.774;8.732;2023-02-12T13:51:09;3.37;;;3.07;;
8001;SDS011;4046;48.774;8.732;2023-02-12T13:56:43;3.40;;;2.87;;
8001;SDS011;4046;48.774;8.732;2023-02-12T14:02:05;3.93;;;2.90;;
8001;SDS011;4046;48.774;8.732;2023-02-12T14:07:17;3.50;;;2.57;;
8001;SDS011;4046;48.774;8.732;2023-02-12T14:09:58;3.40;;;2.80;;
8001;SDS011;4046;48.774;8.732;2023-02-12T14:12:29;2.50;;;2.30;;
8001;SDS011;4046;48.774;8.732;2023-02-12T14:15:07;3.00;;;2.70;;
8001;SDS011;4046;48.774;8.732;2023-02-12T14:22:58;2.80;;;2.40;;
8001;SDS011;4046;48.774;8.732;2023-02-12T14:25:46;2.40;;;2.20;;
8001;SDS011;4046;48.774;8.732;2023-02-12T14:33:49;2.37;;;2.17;;
8001;SDS011;4046;48.774;8.732;2023-02-12T14:39:04;2.67;;;2.20;;
8001;SDS011;4046;48.774;8.732;2023-02-12T14:41:50;7.50;;;3.10;;
8001;SDS011;4046;48.774;8.732;2023-02-12T14:44:55;5.30;;;3.10;;
8001;SDS011;4046;48.774;8.732;2023-02-12T14:49:56;6.23;;;3.67;;
8001;SDS011;4046;48.774;8.732;2023-02-12T14:52:28;7.13;;;3.30;;
8001;SDS011;4046;48.774;8.732;2023-02-12T14:54:58;5.73;;;4.10;;
8001;SDS011;4046;48.774;8.732;2023-02-12T14:57:34;5.70;;;3.47;;
8001;SDS011;4046;48.774;8.732;2023-02-12T15:00:18;5.30;;;3.37;;
8001;SDS011;4046;48.774;8.732;2023-02-12T15:05:20;8.20;;;3.50;;
8001;SDS011;4046;48.774;8.732;2023-02-12T15:07:56;6.20;;;3.83;;
8001;SDS011;4046;48.774;8.732;2023-02-12T15:10:29;6.20;;;4.17;;
8001;SDS011;4046;48.774;8.732;2023-02-12T15:13:12;4.83;;;4.00;;
8001;SDS011;4046;48.774;8.732;2023-02-12T15:15:46;8.37;;;4.23;;
8001;SDS011;4046;48.774;8.732;2023-02-12T15:18:21;6.50;;;3.60;;
8001;SDS011;4046;48.774;8.732;2023-02-12T15:23:39;5.80;;;4.03;;
8001;SDS011;4046;48.774;8.732;2023-02-12T15:26:11;8.00;;;3.90;;
8001;SDS011;4046;48.774;8.732;2023-02-12T15:28:44;7.10;;;3.70;;
8001;SDS011;4046;48.774;8.732;2023-02-12T15:31:14;5.00;;;3.87;;
8001;SDS011;4046;48.774;8.732;2023-02-12T15:33:46;5.47;;;3.30;;
8001;SDS011;4046;48.774;8.732;2023-02-12T15:36:19;4.57;;;3.67;;
8001;SDS011;4046;48.774;8.732;2023-02-12T15:38:47;4.73;;;4.10;;
8001;SDS011;4046;48.774;8.732;2023-02-12T15:41:36;5.70;;;4.00;;
8001;SDS011;4046;48.774;8.732;2023-02-12T15:44:26;7.30;;;4.17;;
8001;SDS011;4046;48.774;8.732;2023-02-12T15:49:33;3.90;;;3.47;;
8001;SDS011;4046;48.774;8.732;2023-02-12T15:52:09;4.80;;;3.60;;
8001;SDS011;4046;48.774;8.732;2023-02-12T15:54:42;4.10;;;3.67;;
8001;SDS011;4046;48.774;8.732;2023-02-12T15:57:17;4.40;;;3.50;;
8001;SDS011;4046;48.774;8.732;2023-02-12T15:59:50;4.63;;;3.60;;
8001;SDS011;4046;48.774;8.732;2023-02-12T16:02:26;4.17;;;3.63;;
8001;SDS011;4046;48.774;8.732;2023-02-12T16:04:54;3.90;;;3.30;;
8001;SDS011;4046;48.774;8.732;2023-02-12T16:07:21;4.13;;;3.60;;
8001;SDS011;4046;48.774;8.732;2023-02-12T16:09:49;3.67;;;3.37;;
8001;SDS011;4046;48.774;8.732;2023-02-12T16:12:18;5.37;;;3.70;;
8001;SDS011;4046;48.774;8.732;2023-02-12T16:14:48;3.43;;;3.13;;
8001;SDS011;4046;48.774;8.732;2023-02-12T16:22:44;4.50;;;3.50;;
8001;SDS011;4046;48.774;8.732;2023-02-12T16:25:26;3.77;;;3.47;;
8001;SDS011;4046;48.774;8.732;2023-02-12T16:28:01;3.80;;;3.50;;
8001;SDS011;4046;48.774;8.732;2023-02-12T16:30:42;3.93;;;3.50;;
8001;SDS011;4046;48.774;8.732;2023-02-12T16:33:32;4.50;;;3.50;;
8001;SDS011;4046;48.774;8.732;2023-02-12T16:36:04;3.63;;;3.33;;
8001;SDS011;4046;48.774;8.732;2023-02-12T16:38:52;3.37;;;3.07;;
8001;SDS011;4046;48.774;8.732;2023-02-12T16:43:47;6.20;;;3.70;;
8001;SDS011;4046;48.774;8.732;2023-02-12T16:46:16;4.50;;;3.80;;
8001;SDS011;4046;48.774;8.732;2023-02-12T16:48:43;5.10;;;3.87;;
8001;SDS011;4046;48.774;8.732;2023-02-12T16:53:54;8.13;;;3.80;;
8001;SDS011;4046;48.774;8.732;2023-02-12T16:56:22;8.73;;;3.90;;
8001;SDS011;4046;48.774;8.732;2023-02-12T16:58:52;6.73;;;3.30;;
8001;SDS011;4046;48.774;8.732;2023-02-12T17:01:23;7.67;;;3.60;;
8001;SDS011;4046;48.774;8.732;2023-02-12T17:03:51;9.00;;;3.80;;
8001;SDS011;4046;48.774;8.732;2023-02-12T17:06:19;3.93;;;3.30;;
8001;SDS011;4046;48.774;8.732;2023-02-12T17:08:46;4.50;;;3.00;;
8001;SDS011;4046;48.774;8.732;2023-02-12T17:11:13;5.10;;;3.27;;
8001;SDS011;4046;48.774;8.732;2023-02-12T17:13:43;4.83;;;3.17;;
8001;SDS011;4046;48.774;8.732;2023-02-12T17:16:10;3.30;;;3.00;;
8001;SDS011;4046;48.774;8.732;2023-02-12T17:18:36;7.90;;;3.70;;
8001;SDS011;4046;48.774;8.732;2023-02-12T17:21:07;3.20;;;2.90;;
8001;SDS011;4046;48.774;8.732;2023-02-12T17:23:40;3.93;;;3.30;;
8001;SDS011;4046;48.774;8.732;2023-02-12T17:26:07;4.37;;;3.00;;
8001;SDS011;4046;48.774;8.732;2023-02-12T17:28:34;3.23;;;2.93;;
8001;SDS011;4046;48.774;8.732;2023-02-12T17:31:00;8.93;;;3.90;;
8001;SDS011;4046;48.774;8.732;2023-02-12T17:33:31;5.13;;;3.43;;
8001;SDS011;4046;48.774;8.732;2023-02-12T17:35:57;3.73;;;3.10;;
8001;SDS011;4046;48.774;8.732;2023-02-12T17:38:24;3.77;;;3.40;;
8001;SDS011;4046;48.774;8.732;2023-02-12T17:40:50;3.23;;;2.83;;
8001;SDS011;4046;48.774;8.732;2023-02-12T17:43:16;4.03;;;2.63;;
8001;SDS011;4046;48.774;8.732;2023-02-12T17:45:42;3.57;;;2.93;;
8001;SDS011;4046;48.774;8.732;2023-02-12T17:48:12;4.37;;;3.00;;
8001;SDS011;4046;48.774;8.732;2023-02-12T17:50:40;3.90;;;2.80;;
8001;SDS011;4046;48.774;8.732;2023-02-12T17:53:07;4.00;;;2.70;;
8001;SDS011;4046;48.774;8.732;2023-02-12T17:55:38;3.40;;;2.90;;
8001;SDS011;4046;48.774;8.732;2023-02-12T17:58:05;2.80;;;2.27;;
8001;SDS011;4046;48.774;8.732;2023-02-12T18:00:32;2.70;;;2.50;;
8001;SDS011;4046;48.774;8.732;2023-02-12T18:02:58;4.13;;;3.00;;
8001;SDS011;4046;48.774;8.732;2023-02-12T18:05:25;3.10;;;2.70;;
8001;SDS011;4046;48.774;8.732;2023-02-12T18:07:51;2.40;;;2.20;;
8001;SDS011;4046;48.774;8.732;2023-02-12T18:10:17;2.83;;;2.63;;
8001;SDS011;4046;48.774;8.732;2023-02-12T18:12:43;2.73;;;2.53;;
8001;SDS011;4046;48.774;8.732;2023-02-12T18:15:09;2.80;;;2.60;;
8001;SDS011;4046;48.774;8.732;2023-02-12T18:17:36;2.60;;;2.40;;
8001;SDS011;4046;48.774;8.732;2023-02-12T18:20:02;3.17;;;2.80;;
8001;SDS011;4046;48.774;8.732;2023-02-12T18:22:29;2.80;;;2.60;;
8001;SDS011;4046;48.774;8.732;2023-02-12T18:24:56;2.50;;;2.30;;
8001;SDS011;4046;48.774;8.732;2023-02-12T18:27:23;2.57;;;2.37;;
8001;SDS011;4046;48.774;8.732;2023-02-12T18:29:49;2.60;;;2.40;;